createdAt,value
2018-05-07T00:01:05.707Z,9.63
2018-05-07T00:02:12.107Z,9.58
2018-05-07T00:03:18.435Z,9.50
2018-05-07T00:04:24.656Z,9.47
2018-05-07T00:05:30.943Z,9.43
2018-05-07T00:06:37.150Z,9.45
2018-05-07T00:07:43.386Z,9.45
2018-05-07T00:08:49.366Z,9.38
2018-05-07T00:09:55.675Z,9.39
2018-05-07T00:11:01.904Z,9.41
2018-05-07T00:12:07.933Z,9.31
2018-05-07T00:13:14.408Z,9.30
2018-05-07T00:14:21.131Z,9.34
2018-05-07T00:15:27.330Z,9.29
2018-05-07T00:16:34.457Z,9.29
2018-05-07T00:17:40.703Z,9.22
2018-05-07T00:18:47.007Z,9.15
2018-05-07T00:19:53.279Z,9.06
2018-05-07T00:20:59.537Z,9.00
2018-05-07T00:22:05.813Z,9.05
2018-05-07T00:23:12.064Z,9.01
2018-05-07T00:24:18.361Z,9.05
2018-05-07T00:25:24.548Z,9.08
2018-05-07T00:26:30.933Z,9.16
2018-05-07T00:27:37.055Z,9.19
2018-05-07T00:28:43.291Z,9.16
2018-05-07T00:29:49.515Z,9.18
2018-05-07T00:30:55.985Z,9.18
2018-05-07T00:32:02.232Z,9.15
2018-05-07T00:33:09.453Z,9.10
2018-05-07T00:34:17.346Z,9.03
2018-05-07T00:35:28.229Z,8.98
2018-05-07T00:36:37.903Z,8.95
2018-05-07T00:37:44.137Z,8.91
2018-05-07T00:38:50.638Z,8.85
2018-05-07T00:39:56.850Z,8.81
2018-05-07T00:41:03.053Z,8.78
2018-05-07T00:42:09.260Z,8.77
2018-05-07T00:43:15.471Z,8.76
2018-05-07T00:44:21.722Z,8.76
2018-05-07T00:45:27.986Z,8.77
2018-05-07T00:46:34.310Z,8.82
2018-05-07T00:47:40.507Z,8.86
2018-05-07T00:48:47.879Z,8.83
2018-05-07T00:49:54.065Z,8.76
2018-05-07T00:51:00.272Z,8.78
2018-05-07T00:52:06.506Z,8.87
2018-05-07T00:53:12.795Z,8.93
2018-05-07T00:54:19.095Z,8.96
2018-05-07T00:55:25.303Z,8.99
2018-05-07T00:56:31.526Z,8.95
2018-05-07T00:57:37.768Z,8.92
2018-05-07T00:58:44.060Z,8.91
2018-05-07T00:59:50.246Z,8.87
2018-05-07T01:00:56.458Z,8.84
2018-05-07T01:02:01.423Z,8.90
2018-05-07T01:03:07.808Z,8.98
2018-05-07T01:04:14.714Z,9.05
2018-05-07T01:05:21.670Z,9.05
2018-05-07T01:06:28.423Z,9.06
2018-05-07T01:07:34.635Z,8.83
2018-05-07T01:08:40.550Z,8.52
2018-05-07T01:09:46.845Z,8.45
2018-05-07T01:10:53.031Z,8.42
2018-05-07T01:11:59.249Z,8.44
2018-05-07T01:13:05.439Z,8.45
2018-05-07T01:14:11.675Z,8.42
2018-05-07T01:15:17.895Z,8.48
2018-05-07T01:16:24.219Z,8.58
2018-05-07T01:17:30.394Z,8.67
2018-05-07T01:18:36.657Z,8.63
2018-05-07T01:19:42.983Z,8.55
2018-05-07T01:20:49.251Z,8.47
2018-05-07T01:22:02.303Z,8.39
2018-05-07T01:23:08.548Z,8.39
2018-05-07T01:24:14.735Z,8.37
2018-05-07T01:25:20.945Z,8.26
2018-05-07T01:26:26.923Z,8.27
2018-05-07T01:27:33.178Z,8.33
2018-05-07T01:28:39.401Z,8.34
2018-05-07T01:29:45.463Z,8.31
2018-05-07T01:30:51.375Z,8.29
2018-05-07T01:31:58.083Z,8.37
2018-05-07T01:33:04.331Z,8.51
2018-05-07T01:34:10.340Z,8.54
2018-05-07T01:35:16.623Z,8.50
2018-05-07T01:36:24.081Z,8.49
2018-05-07T01:37:30.263Z,8.50
2018-05-07T01:38:36.595Z,8.48
2018-05-07T01:39:42.782Z,8.52
2018-05-07T01:40:49.927Z,8.41
2018-05-07T01:41:57.038Z,8.33
2018-05-07T01:43:03.952Z,8.20
2018-05-07T01:44:11.668Z,8.19
2018-05-07T01:45:18.042Z,8.18
2018-05-07T01:46:23.663Z,8.23
2018-05-07T01:47:29.947Z,8.28
2018-05-07T01:48:36.192Z,8.36
2018-05-07T01:49:42.495Z,8.39
2018-05-07T01:50:48.781Z,8.46
2018-05-07T01:51:54.995Z,8.54
2018-05-07T01:53:02.162Z,8.58
2018-05-07T01:54:09.383Z,8.56
2018-05-07T01:55:16.578Z,8.41
2018-05-07T01:56:22.783Z,8.38
2018-05-07T01:57:29.115Z,8.41
2018-05-07T01:58:36.156Z,8.36
2018-05-07T01:59:43.073Z,8.11
2018-05-07T02:00:49.268Z,7.90
2018-05-07T02:01:55.459Z,7.81
2018-05-07T02:03:02.676Z,7.92
2018-05-07T02:04:09.791Z,8.04
2018-05-07T02:05:16.054Z,8.20
2018-05-07T02:06:22.875Z,8.32
2018-05-07T02:07:30.131Z,8.31
2018-05-07T02:08:36.434Z,8.08
2018-05-07T02:09:42.623Z,7.87
2018-05-07T02:10:49.045Z,7.89
2018-05-07T02:11:55.709Z,7.81
2018-05-07T02:13:01.892Z,7.81
2018-05-07T02:14:07.967Z,7.75
2018-05-07T02:15:15.214Z,7.64
2018-05-07T02:16:21.469Z,7.63
2018-05-07T02:17:27.715Z,7.57
2018-05-07T02:18:35.561Z,7.59
2018-05-07T02:19:41.795Z,7.72
2018-05-07T02:20:51.577Z,7.79
2018-05-07T02:21:57.790Z,7.78
2018-05-07T02:23:04.009Z,7.81
2018-05-07T02:24:10.235Z,7.91
2018-05-07T02:25:16.423Z,7.91
2018-05-07T02:26:22.734Z,7.91
2018-05-07T02:27:29.579Z,7.91
2018-05-07T02:28:36.401Z,7.88
2018-05-07T02:29:42.618Z,7.82
2018-05-07T02:30:48.880Z,7.81
2018-05-07T02:31:55.105Z,7.81
2018-05-07T02:33:01.799Z,7.81
2018-05-07T02:34:08.149Z,7.71
2018-05-07T02:35:15.347Z,7.77
2018-05-07T02:36:21.487Z,7.76
2018-05-07T02:37:27.696Z,7.77
2018-05-07T02:38:33.815Z,7.76
2018-05-07T02:39:40.146Z,7.75
2018-05-07T02:40:48.516Z,7.80
2018-05-07T02:41:56.440Z,7.80
2018-05-07T02:43:03.392Z,7.76
2018-05-07T02:44:10.497Z,7.77
2018-05-07T02:45:17.409Z,7.67
2018-05-07T02:46:23.607Z,7.68
2018-05-07T02:47:30.004Z,7.63
2018-05-07T02:48:36.255Z,7.51
2018-05-07T02:49:42.562Z,7.50
2018-05-07T02:50:48.779Z,7.45
2018-05-07T02:51:55.055Z,7.40
2018-05-07T02:53:01.299Z,7.40
2018-05-07T02:54:07.518Z,7.49
2018-05-07T02:55:13.770Z,7.50
2018-05-07T02:56:19.668Z,7.44
2018-05-07T02:57:25.911Z,7.51
2018-05-07T02:58:32.589Z,7.56
2018-05-07T02:59:38.727Z,7.51
2018-05-07T03:00:45.068Z,7.53
2018-05-07T03:01:51.371Z,7.58
2018-05-07T03:02:58.154Z,7.59
2018-05-07T03:04:04.937Z,7.63
2018-05-07T03:05:11.215Z,7.58
2018-05-07T03:06:17.438Z,7.53
2018-05-07T03:07:24.250Z,7.50
2018-05-07T03:08:30.463Z,7.48
2018-05-07T03:09:36.001Z,7.49
2018-05-07T03:10:42.359Z,7.48
2018-05-07T03:11:48.575Z,7.51
2018-05-07T03:12:54.439Z,7.52
2018-05-07T03:14:00.715Z,7.55
2018-05-07T03:15:07.009Z,7.55
2018-05-07T03:16:13.223Z,7.52
2018-05-07T03:17:19.269Z,7.52
2018-05-07T03:18:25.541Z,7.50
2018-05-07T03:19:31.840Z,7.48
2018-05-07T03:20:37.742Z,7.41
2018-05-07T03:21:43.963Z,7.36
2018-05-07T03:22:52.229Z,7.27
2018-05-07T03:24:01.491Z,7.26
2018-05-07T03:25:07.490Z,7.29
2018-05-07T03:26:13.446Z,7.34
2018-05-07T03:27:19.703Z,7.30
2018-05-07T03:28:25.627Z,7.30
2018-05-07T03:29:31.895Z,7.27
2018-05-07T03:30:39.065Z,7.33
2018-05-07T03:31:45.255Z,7.35
2018-05-07T03:32:52.083Z,7.39
2018-05-07T03:33:59.336Z,7.37
2018-05-07T03:35:06.542Z,7.37
2018-05-07T03:36:12.411Z,7.34
2018-05-07T03:37:18.661Z,7.35
2018-05-07T03:38:24.857Z,7.36
2018-05-07T03:39:31.622Z,7.36
2018-05-07T03:40:37.814Z,7.32
2018-05-07T03:41:44.026Z,7.25
2018-05-07T03:42:50.326Z,7.23
2018-05-07T03:44:01.237Z,7.31
2018-05-07T03:45:10.841Z,7.37
2018-05-07T03:46:16.454Z,7.39
2018-05-07T03:47:22.714Z,7.41
2018-05-07T03:48:29.430Z,7.43
2018-05-07T03:49:35.670Z,7.42
2018-05-07T03:50:42.023Z,7.41
2018-05-07T03:51:48.316Z,7.37
2018-05-07T03:52:56.216Z,7.32
2018-05-07T03:54:03.304Z,7.14
2018-05-07T03:55:10.126Z,7.13
2018-05-07T03:56:16.280Z,7.07
2018-05-07T03:57:22.625Z,7.10
2018-05-07T03:58:28.830Z,7.10
2018-05-07T03:59:35.052Z,7.17
2018-05-07T04:00:41.588Z,7.26
2018-05-07T04:01:47.862Z,7.33
2018-05-07T04:02:54.173Z,7.38
2018-05-07T04:04:00.383Z,7.40
2018-05-07T04:05:06.741Z,7.43
2018-05-07T04:06:13.462Z,7.50
2018-05-07T04:07:19.095Z,7.58
2018-05-07T04:08:24.772Z,7.63
2018-05-07T04:09:31.053Z,7.67
2018-05-07T04:10:37.368Z,7.71
2018-05-07T04:11:43.638Z,7.67
2018-05-07T04:12:49.630Z,7.60
2018-05-07T04:13:55.881Z,7.60
2018-05-07T04:15:02.243Z,7.65
2018-05-07T04:16:08.480Z,7.75
2018-05-07T04:19:04.208Z,7.91
2018-05-07T04:20:21.525Z,7.86
2018-05-07T04:21:27.018Z,7.84
2018-05-07T04:22:44.072Z,7.83
2018-05-07T04:24:01.647Z,7.82
2018-05-07T04:25:07.811Z,7.83
2018-05-07T04:26:15.074Z,7.73
2018-05-07T04:27:21.222Z,7.71
2018-05-07T04:28:28.178Z,7.79
2018-05-07T04:29:34.487Z,7.81
2018-05-07T04:30:40.566Z,7.89
2018-05-07T04:31:46.894Z,7.94
2018-05-07T04:32:53.842Z,7.96
2018-05-07T04:33:59.841Z,7.92
2018-05-07T04:35:06.120Z,7.93
2018-05-07T04:36:12.118Z,7.93
2018-05-07T04:37:19.012Z,7.96
2018-05-07T04:38:25.958Z,7.98
2018-05-07T04:39:32.186Z,8.01
2018-05-07T04:40:38.419Z,8.07
2018-05-07T04:41:44.695Z,8.10
2018-05-07T04:42:50.925Z,8.15
2018-05-07T04:43:57.446Z,8.20
2018-05-07T04:45:03.688Z,8.26
2018-05-07T04:46:09.978Z,8.31
2018-05-07T04:47:16.372Z,8.35
2018-05-07T04:48:22.682Z,8.46
2018-05-07T04:49:28.908Z,8.49
2018-05-07T04:50:35.215Z,8.59
2018-05-07T04:51:41.462Z,8.67
2018-05-07T04:52:47.927Z,8.73
2018-05-07T04:53:54.282Z,8.79
2018-05-07T04:55:00.625Z,8.89
2018-05-07T04:56:06.725Z,8.99
2018-05-07T04:57:12.710Z,9.06
2018-05-07T04:58:18.966Z,9.12
2018-05-07T04:59:24.888Z,9.16
2018-05-07T05:00:31.115Z,9.24
2018-05-07T05:01:37.186Z,9.32
2018-05-07T05:02:43.494Z,9.35
2018-05-07T05:03:52.047Z,9.36
2018-05-07T05:04:58.239Z,9.38
2018-05-07T05:06:04.505Z,9.43
2018-05-07T05:07:10.760Z,9.53
2018-05-07T05:08:17.078Z,9.60
2018-05-07T05:09:27.177Z,9.66
2018-05-07T05:10:33.367Z,9.75
2018-05-07T05:11:39.345Z,9.84
2018-05-07T05:12:45.534Z,9.90
2018-05-07T05:13:51.599Z,9.97
2018-05-07T05:14:57.850Z,10.01
2018-05-07T05:16:04.075Z,10.14
2018-05-07T05:17:10.043Z,10.40
2018-05-07T05:18:16.244Z,10.64
2018-05-07T05:19:22.479Z,10.62
2018-05-07T05:20:28.682Z,10.60
2018-05-07T05:21:34.955Z,10.61
2018-05-07T05:22:41.697Z,10.68
2018-05-07T05:23:47.963Z,10.65
2018-05-07T05:24:54.300Z,10.74
2018-05-07T05:26:00.599Z,10.83
2018-05-07T05:27:07.584Z,10.91
2018-05-07T05:28:13.798Z,11.10
2018-05-07T05:29:21.142Z,11.09
2018-05-07T05:30:27.369Z,11.02
2018-05-07T05:31:33.585Z,11.02
2018-05-07T05:32:40.374Z,11.06
2018-05-07T05:33:46.583Z,11.17
2018-05-07T05:34:52.589Z,11.32
2018-05-07T05:35:58.775Z,11.38
2018-05-07T05:37:04.904Z,11.31
2018-05-07T05:38:11.143Z,11.40
2018-05-07T05:39:17.434Z,11.38
2018-05-07T05:40:23.751Z,11.45
2018-05-07T05:41:30.090Z,11.65
2018-05-07T05:42:36.368Z,11.72
2018-05-07T05:43:42.653Z,11.87
2018-05-07T05:44:49.514Z,11.92
2018-05-07T05:45:55.980Z,11.84
2018-05-07T05:47:02.224Z,11.83
2018-05-07T05:48:08.442Z,11.96
2018-05-07T05:49:14.660Z,11.96
2018-05-07T05:50:20.923Z,12.11
2018-05-07T05:51:28.161Z,12.20
2018-05-07T05:52:34.426Z,12.21
2018-05-07T05:53:40.736Z,12.28
2018-05-07T05:54:46.803Z,12.21
2018-05-07T05:55:53.131Z,12.31
2018-05-07T05:56:59.394Z,12.49
2018-05-07T05:58:05.671Z,12.51
2018-05-07T05:59:11.995Z,12.53
2018-05-07T06:00:18.274Z,12.64
2018-05-07T06:01:24.492Z,12.76
2018-05-07T06:02:30.831Z,12.85
2018-05-07T06:03:37.309Z,12.94
2018-05-07T06:04:43.542Z,12.90
2018-05-07T06:05:49.701Z,12.89
2018-05-07T06:06:55.667Z,12.79
2018-05-07T06:08:02.054Z,12.83
2018-05-07T06:09:08.264Z,12.88
2018-05-07T06:10:14.355Z,12.93
2018-05-07T06:11:23.388Z,13.01
2018-05-07T06:12:34.868Z,13.26
2018-05-07T06:13:41.963Z,13.26
2018-05-07T06:14:49.276Z,13.37
2018-05-07T06:15:55.564Z,13.36
2018-05-07T06:17:02.149Z,13.15
2018-05-07T06:18:08.369Z,13.15
2018-05-07T06:19:14.707Z,13.24
2018-05-07T06:20:21.006Z,13.10
2018-05-07T06:21:27.202Z,13.41
2018-05-07T06:22:33.463Z,13.62
2018-05-07T06:23:39.952Z,13.43
2018-05-07T06:24:46.248Z,13.55
2018-05-07T06:25:52.466Z,13.59
2018-05-07T06:26:58.791Z,13.79
2018-05-07T06:28:04.745Z,13.80
2018-05-07T06:29:10.958Z,13.55
2018-05-07T06:30:17.205Z,13.72
2018-05-07T06:31:23.501Z,13.66
2018-05-07T06:32:29.756Z,14.00
2018-05-07T06:33:36.017Z,14.36
2018-05-07T06:34:42.331Z,14.55
2018-05-07T06:35:48.310Z,14.42
2018-05-07T06:36:55.543Z,14.22
2018-05-07T06:38:01.715Z,14.38
2018-05-07T06:39:07.993Z,14.54
2018-05-07T06:40:14.283Z,14.82
2018-05-07T06:41:20.517Z,14.66
2018-05-07T06:42:27.155Z,14.80
2018-05-07T06:43:34.286Z,14.76
2018-05-07T06:44:40.569Z,14.96
2018-05-07T06:45:46.821Z,15.20
2018-05-07T06:46:53.357Z,15.23
2018-05-07T06:47:59.723Z,15.08
2018-05-07T06:49:06.026Z,15.02
2018-05-07T06:50:12.231Z,15.24
2018-05-07T06:51:18.549Z,15.33
2018-05-07T06:52:25.520Z,15.43
2018-05-07T06:53:32.318Z,15.50
2018-05-07T06:54:38.553Z,15.46
2018-05-07T06:55:44.842Z,15.56
2018-05-07T06:56:51.122Z,15.58
2018-05-07T06:57:57.448Z,15.66
2018-05-07T06:59:03.259Z,15.67
2018-05-07T07:00:08.799Z,15.78
2018-05-07T07:01:15.050Z,15.81
2018-05-07T07:02:21.320Z,15.77
2018-05-07T07:03:27.770Z,15.77
2018-05-07T07:04:33.981Z,15.98
2018-05-07T07:05:40.216Z,16.16
2018-05-07T07:06:46.383Z,16.16
2018-05-07T07:07:53.305Z,16.14
2018-05-07T07:08:59.535Z,15.78
2018-05-07T07:10:05.757Z,15.60
2018-05-07T07:11:11.948Z,15.88
2018-05-07T07:12:19.083Z,16.08
2018-05-07T07:13:25.320Z,16.26
2018-05-07T07:14:35.970Z,16.35
2018-05-07T07:15:42.194Z,16.29
2018-05-07T07:16:48.411Z,16.35
2018-05-07T07:17:54.682Z,16.50
2018-05-07T07:19:01.594Z,16.53
2018-05-07T07:20:07.875Z,16.38
2018-05-07T07:21:14.100Z,16.37
2018-05-07T07:22:20.430Z,16.31
2018-05-07T07:23:26.743Z,16.56
2018-05-07T07:24:33.051Z,16.53
2018-05-07T07:25:39.331Z,16.54
2018-05-07T07:26:45.571Z,16.23
2018-05-07T07:27:51.958Z,16.33
2018-05-07T07:28:58.522Z,16.33
2018-05-07T07:30:04.129Z,16.53
2018-05-07T07:31:10.382Z,16.40
2018-05-07T07:32:16.697Z,16.49
2018-05-07T07:33:22.939Z,16.76
2018-05-07T07:34:29.199Z,17.01
2018-05-07T07:35:35.416Z,17.09
2018-05-07T07:36:41.735Z,17.19
2018-05-07T07:37:47.967Z,17.26
2018-05-07T07:38:54.167Z,17.25
2018-05-07T07:40:00.536Z,17.41
2018-05-07T07:41:06.884Z,17.54
2018-05-07T07:42:13.094Z,17.36
2018-05-07T07:43:19.345Z,17.43
2018-05-07T07:44:26.621Z,17.76
2018-05-07T07:45:33.151Z,17.75
2018-05-07T07:46:39.490Z,17.92
2018-05-07T07:47:45.709Z,17.69
2018-05-07T07:48:51.975Z,17.63
2018-05-07T07:49:57.931Z,17.85
2018-05-07T07:51:04.315Z,17.95
2018-05-07T07:52:10.594Z,18.06
2018-05-07T07:53:27.126Z,17.99
2018-05-07T07:54:33.494Z,17.95
2018-05-07T07:55:39.664Z,18.01
2018-05-07T07:56:46.666Z,18.01
2018-05-07T07:57:52.948Z,17.99
2018-05-07T07:58:59.226Z,17.83
2018-05-07T08:00:05.440Z,17.99
2018-05-07T08:01:11.632Z,18.17
2018-05-07T08:02:17.861Z,18.33
2018-05-07T08:03:24.084Z,18.42
2018-05-07T08:04:30.286Z,18.37
2018-05-07T08:05:36.496Z,18.39
2018-05-07T08:06:42.699Z,18.53
2018-05-07T08:07:48.677Z,18.65
2018-05-07T08:08:55.039Z,18.77
2018-05-07T08:10:01.201Z,18.77
2018-05-07T08:11:07.811Z,18.76
2018-05-07T08:12:14.090Z,18.57
2018-05-07T08:13:20.475Z,18.76
2018-05-07T08:14:26.684Z,18.82
2018-05-07T08:15:33.420Z,18.87
2018-05-07T08:16:42.037Z,19.15
2018-05-07T08:17:49.295Z,19.35
2018-05-07T08:18:56.298Z,19.48
2018-05-07T08:20:02.523Z,19.31
2018-05-07T08:21:08.847Z,19.37
2018-05-07T08:22:15.054Z,19.20
2018-05-07T08:23:21.262Z,18.92
2018-05-07T08:24:27.487Z,19.12
2018-05-07T08:25:33.770Z,19.30
2018-05-07T08:26:40.014Z,19.16
2018-05-07T08:27:46.190Z,19.18
2018-05-07T08:28:52.447Z,19.34
2018-05-07T08:29:58.732Z,19.39
2018-05-07T08:31:05.524Z,19.45
2018-05-07T08:32:11.705Z,19.30
2018-05-07T08:33:17.972Z,19.43
2018-05-07T08:34:24.320Z,19.30
2018-05-07T08:35:30.593Z,19.46
2018-05-07T08:36:36.918Z,19.61
2018-05-07T08:37:44.185Z,19.80
2018-05-07T08:38:50.522Z,19.87
2018-05-07T08:39:57.591Z,19.92
2018-05-07T08:41:03.797Z,19.68
2018-05-07T08:42:09.815Z,19.61
2018-05-07T08:43:16.113Z,19.64
2018-05-07T08:44:22.466Z,19.92
2018-05-07T08:45:28.757Z,20.22
2018-05-07T08:46:35.938Z,20.44
2018-05-07T08:47:42.362Z,20.26
2018-05-07T08:48:48.736Z,20.37
2018-05-07T08:49:55.020Z,20.04
2018-05-07T08:51:01.239Z,20.08
2018-05-07T08:52:07.729Z,20.07
2018-05-07T08:53:14.032Z,20.14
2018-05-07T08:54:20.485Z,20.06
2018-05-07T08:55:26.880Z,20.00
2018-05-07T08:56:33.099Z,20.05
2018-05-07T08:57:39.423Z,20.26
2018-05-07T08:58:45.371Z,20.18
2018-05-07T08:59:52.614Z,19.75
2018-05-07T09:00:58.885Z,19.95
2018-05-07T09:02:05.670Z,20.30
2018-05-07T09:03:12.050Z,20.44
2018-05-07T09:04:19.281Z,20.28
2018-05-07T09:05:25.517Z,20.26
2018-05-07T09:06:31.737Z,19.85
2018-05-07T09:07:37.942Z,19.50
2018-05-07T09:08:44.134Z,19.67
2018-05-07T09:09:50.381Z,19.89
2018-05-07T09:10:57.335Z,20.13
2018-05-07T09:12:03.359Z,20.27
2018-05-07T09:13:09.608Z,20.43
2018-05-07T09:14:15.844Z,20.46
2018-05-07T09:15:22.123Z,20.38
2018-05-07T09:16:28.435Z,20.14
2018-05-07T09:17:35.444Z,20.42
2018-05-07T09:18:41.686Z,20.42
2018-05-07T09:19:48.024Z,20.42
2018-05-07T09:20:55.491Z,20.29
2018-05-07T09:22:01.745Z,20.28
2018-05-07T09:23:08.672Z,20.72
2018-05-07T09:24:14.887Z,20.67
2018-05-07T09:25:21.167Z,20.86
2018-05-07T09:26:27.415Z,20.90
2018-05-07T09:27:33.638Z,20.90
2018-05-07T09:28:39.895Z,20.80
2018-05-07T09:29:46.094Z,20.96
2018-05-07T09:30:52.354Z,21.06
2018-05-07T09:31:58.647Z,20.64
2018-05-07T09:33:04.515Z,20.77
2018-05-07T09:34:10.790Z,20.75
2018-05-07T09:35:17.077Z,20.33
2018-05-07T09:36:23.457Z,20.36
2018-05-07T09:37:29.691Z,20.51
2018-05-07T09:38:36.791Z,20.47
2018-05-07T09:39:43.614Z,20.79
2018-05-07T09:40:55.496Z,20.70
2018-05-07T09:42:02.970Z,20.80
2018-05-07T09:43:09.234Z,20.74
2018-05-07T09:44:15.721Z,20.66
2018-05-07T09:45:22.718Z,20.72
2018-05-07T09:46:29.012Z,20.78
2018-05-07T09:47:35.209Z,21.08
2018-05-07T09:48:41.415Z,21.04
2018-05-07T09:49:47.675Z,21.00
2018-05-07T09:50:53.982Z,20.67
2018-05-07T09:52:00.254Z,20.72
2018-05-07T09:53:06.459Z,21.03
2018-05-07T09:54:13.683Z,21.13
2018-05-07T09:55:20.574Z,21.06
2018-05-07T09:56:27.507Z,20.75
2018-05-07T09:57:33.464Z,20.71
2018-05-07T10:00:14.417Z,20.69
2018-05-07T10:01:20.455Z,20.72
2018-05-07T10:02:26.474Z,20.84
2018-05-07T10:03:32.942Z,21.08
2018-05-07T10:04:40.340Z,20.97
2018-05-07T10:05:47.085Z,20.90
2018-05-07T10:06:53.411Z,20.97
2018-05-07T10:07:59.624Z,21.35
2018-05-07T10:09:05.134Z,21.39
2018-05-07T10:10:11.355Z,21.58
2018-05-07T10:11:17.875Z,21.66
2018-05-07T10:12:24.171Z,21.55
2018-05-07T10:13:30.422Z,21.49
2018-05-07T10:14:36.652Z,21.48
2018-05-07T10:15:42.997Z,21.22
2018-05-07T10:16:49.340Z,20.93
2018-05-07T10:17:55.613Z,20.91
2018-05-07T10:19:01.820Z,21.03
2018-05-07T10:20:08.055Z,21.23
2018-05-07T10:21:15.064Z,21.08
2018-05-07T10:22:24.484Z,21.04
2018-05-07T10:23:33.122Z,20.89
2018-05-07T10:24:39.558Z,20.98
2018-05-07T10:25:45.855Z,21.14
2018-05-07T10:26:52.121Z,20.99
2018-05-07T10:27:58.362Z,21.05
2018-05-07T10:29:04.207Z,21.18
2018-05-07T10:30:10.508Z,21.57
2018-05-07T10:31:16.566Z,21.53
2018-05-07T10:32:22.876Z,21.69
2018-05-07T10:33:29.105Z,21.63
2018-05-07T10:34:35.300Z,21.78
2018-05-07T10:35:41.543Z,21.86
2018-05-07T10:36:48.043Z,21.48
2018-05-07T10:37:54.374Z,21.45
2018-05-07T10:39:00.642Z,21.61
2018-05-07T10:40:06.989Z,21.48
2018-05-07T10:41:13.275Z,21.49
2018-05-07T10:42:19.599Z,21.57
2018-05-07T10:43:31.191Z,21.90
2018-05-07T10:44:43.727Z,21.77
2018-05-07T10:45:50.025Z,21.68
2018-05-07T10:46:56.335Z,21.47
2018-05-07T10:48:02.599Z,21.60
2018-05-07T10:49:08.954Z,21.78
2018-05-07T10:50:15.478Z,21.71
2018-05-07T10:51:22.480Z,21.80
2018-05-07T10:52:30.587Z,21.93
2018-05-07T10:53:36.835Z,22.01
2018-05-07T10:54:43.051Z,21.66
2018-05-07T10:55:50.082Z,21.57
2018-05-07T10:56:56.472Z,21.50
2018-05-07T10:58:02.716Z,21.63
2018-05-07T10:59:09.011Z,21.65
2018-05-07T11:00:15.244Z,21.78
2018-05-07T11:01:21.485Z,21.96
2018-05-07T11:02:27.734Z,22.11
2018-05-07T11:03:33.943Z,21.97
2018-05-07T11:04:40.165Z,22.09
2018-05-07T11:05:46.727Z,22.03
2018-05-07T11:06:52.992Z,21.99
2018-05-07T11:08:00.023Z,21.98
2018-05-07T11:09:06.711Z,21.81
2018-05-07T11:10:12.981Z,21.86
2018-05-07T11:11:19.261Z,21.74
2018-05-07T11:12:25.559Z,22.03
2018-05-07T11:13:32.604Z,22.25
2018-05-07T11:14:39.036Z,22.33
2018-05-07T11:15:45.355Z,22.22
2018-05-07T11:16:51.638Z,21.86
2018-05-07T11:17:57.983Z,22.10
2018-05-07T11:19:04.251Z,22.03
2018-05-07T11:20:10.540Z,22.07
2018-05-07T11:21:16.703Z,22.17
2018-05-07T11:22:22.765Z,21.96
2018-05-07T11:23:29.724Z,21.82
2018-05-07T11:24:38.444Z,22.01
2018-05-07T11:25:44.647Z,22.20
2018-05-07T11:26:50.895Z,22.20
2018-05-07T11:27:57.103Z,22.29
2018-05-07T11:29:03.336Z,21.98
2018-05-07T11:30:09.634Z,22.22
2018-05-07T11:31:15.623Z,21.89
2018-05-07T11:32:21.625Z,22.09
2018-05-07T11:33:27.844Z,22.24
2018-05-07T11:34:34.089Z,22.18
2018-05-07T11:35:40.411Z,22.06
2018-05-07T11:36:46.639Z,22.10
2018-05-07T11:37:52.539Z,22.00
2018-05-07T11:38:58.934Z,21.94
2018-05-07T11:40:05.220Z,22.08
2018-05-07T11:41:11.593Z,21.97
2018-05-07T11:42:17.864Z,21.95
2018-05-07T11:43:24.831Z,22.10
2018-05-07T11:44:31.806Z,22.43
2018-05-07T11:45:39.109Z,22.56
2018-05-07T11:46:45.271Z,22.63
2018-05-07T11:47:51.262Z,22.76
2018-05-07T11:48:58.735Z,22.99
2018-05-07T11:50:06.376Z,22.98
2018-05-07T11:51:13.168Z,22.76
2018-05-07T11:52:19.456Z,22.67
2018-05-07T11:53:25.663Z,22.93
2018-05-07T11:54:31.884Z,22.67
2018-05-07T11:55:38.121Z,22.54
2018-05-07T11:56:44.391Z,22.55
2018-05-07T11:57:50.602Z,22.65
2018-05-07T11:58:57.629Z,22.46
2018-05-07T12:00:03.776Z,22.58
2018-05-07T12:01:10.084Z,22.54
2018-05-07T12:02:16.424Z,22.61
2018-05-07T12:03:22.883Z,22.76
2018-05-07T12:04:29.094Z,22.94
2018-05-07T12:05:35.982Z,23.07
2018-05-07T12:06:44.815Z,23.10
2018-05-07T12:07:50.987Z,23.28
2018-05-07T12:08:57.247Z,23.04
2018-05-07T12:10:03.379Z,22.85
2018-05-07T12:11:09.655Z,23.06
2018-05-07T12:12:20.982Z,23.03
2018-05-07T12:13:27.286Z,23.34
2018-05-07T12:14:34.230Z,23.22
2018-05-07T12:15:41.837Z,22.93
2018-05-07T12:16:48.347Z,22.97
2018-05-07T12:17:54.430Z,23.14
2018-05-07T12:19:00.694Z,23.22
2018-05-07T12:20:06.986Z,23.41
2018-05-07T12:21:13.002Z,23.15
2018-05-07T12:22:19.293Z,23.11
2018-05-07T12:23:25.523Z,23.07
2018-05-07T12:24:31.590Z,22.73
2018-05-07T12:25:37.887Z,22.98
2018-05-07T12:26:43.823Z,23.15
2018-05-07T12:27:50.240Z,23.12
2018-05-07T12:28:56.483Z,23.15
2018-05-07T12:30:02.807Z,23.24
2018-05-07T12:31:09.998Z,23.09
2018-05-07T12:32:17.651Z,22.85
2018-05-07T12:33:23.839Z,23.06
2018-05-07T12:34:30.030Z,23.14
2018-05-07T12:35:36.263Z,23.01
2018-05-07T12:36:43.798Z,23.29
2018-05-07T12:37:50.135Z,23.37
2018-05-07T12:38:56.396Z,23.42
2018-05-07T12:40:02.647Z,23.49
2018-05-07T12:41:08.974Z,23.36
2018-05-07T12:42:15.247Z,23.44
2018-05-07T12:43:21.483Z,23.53
2018-05-07T12:44:27.787Z,23.62
2018-05-07T12:45:34.008Z,23.61
2018-05-07T12:46:40.084Z,23.43
2018-05-07T12:47:46.560Z,23.45
2018-05-07T12:48:56.351Z,23.54
2018-05-07T12:50:02.509Z,23.78
2018-05-07T12:51:08.738Z,23.94
2018-05-07T12:52:14.963Z,23.86
2018-05-07T12:53:21.249Z,23.82
2018-05-07T12:54:27.630Z,23.62
2018-05-07T12:55:33.894Z,23.73
2018-05-07T12:56:40.228Z,23.92
2018-05-07T12:57:46.527Z,23.79
2018-05-07T12:58:52.826Z,23.64
2018-05-07T12:59:59.114Z,23.53
2018-05-07T13:01:05.348Z,23.68
2018-05-07T13:02:11.556Z,23.63
2018-05-07T13:03:17.514Z,23.76
2018-05-07T13:04:23.776Z,23.68
2018-05-07T13:05:30.085Z,23.86
2018-05-07T13:06:36.534Z,23.95
2018-05-07T13:07:42.697Z,24.08
2018-05-07T13:08:48.585Z,23.85
2018-05-07T13:09:54.795Z,23.70
2018-05-07T13:11:00.800Z,23.58
2018-05-07T13:12:07.138Z,23.70
2018-05-07T13:13:13.450Z,23.64
2018-05-07T13:14:19.966Z,23.99
2018-05-07T13:15:26.287Z,24.11
2018-05-07T13:16:32.597Z,23.82
2018-05-07T13:17:38.803Z,23.84
2018-05-07T13:18:45.121Z,23.83
2018-05-07T13:19:51.398Z,23.74
2018-05-07T13:20:57.710Z,23.82
2018-05-07T13:22:05.177Z,23.65
2018-05-07T13:23:11.428Z,23.91
2018-05-07T13:24:17.323Z,23.62
2018-05-07T13:25:23.606Z,23.85
2018-05-07T13:26:29.931Z,24.07
2018-05-07T13:27:36.306Z,23.88
2018-05-07T13:28:42.543Z,23.93
2018-05-07T13:29:48.835Z,23.73
2018-05-07T13:30:55.320Z,23.59
2018-05-07T13:32:02.136Z,23.77
2018-05-07T13:33:08.759Z,24.09
2018-05-07T13:34:15.116Z,24.15
2018-05-07T13:35:21.316Z,23.77
2018-05-07T13:36:27.690Z,23.84
2018-05-07T13:37:34.045Z,23.99
2018-05-07T13:38:41.271Z,24.06
2018-05-07T13:39:47.584Z,24.09
2018-05-07T13:40:53.782Z,24.20
2018-05-07T13:42:00.027Z,24.30
2018-05-07T13:43:06.321Z,24.29
2018-05-07T13:44:12.539Z,24.18
2018-05-07T13:45:18.845Z,24.09
2018-05-07T13:46:26.317Z,24.26
2018-05-07T13:47:33.266Z,24.23
2018-05-07T13:48:39.550Z,24.30
2018-05-07T13:49:45.821Z,24.31
2018-05-07T13:50:52.024Z,24.48
2018-05-07T13:51:58.265Z,24.38
2018-05-07T13:53:04.267Z,24.04
2018-05-07T13:54:10.389Z,24.18
2018-05-07T13:55:16.683Z,24.02
2018-05-07T13:56:23.016Z,24.20
2018-05-07T13:57:29.335Z,24.06
2018-05-07T13:58:35.776Z,24.08
2018-05-07T13:59:42.040Z,24.24
2018-05-07T14:00:48.171Z,24.02
2018-05-07T14:01:54.530Z,24.17
2018-05-07T14:03:00.771Z,24.12
2018-05-07T14:04:07.158Z,24.12
2018-05-07T14:05:13.367Z,24.25
2018-05-07T14:06:19.572Z,24.24
2018-05-07T14:07:25.826Z,24.54
2018-05-07T14:08:32.173Z,24.52
2018-05-07T14:09:39.183Z,24.30
2018-05-07T14:10:45.450Z,24.30
2018-05-07T14:11:51.664Z,24.16
2018-05-07T14:12:57.864Z,24.42
2018-05-07T14:14:05.268Z,24.51
2018-05-07T14:15:12.125Z,24.54
2018-05-07T14:16:18.341Z,24.68
2018-05-07T14:17:24.587Z,24.55
2018-05-07T14:18:30.888Z,24.33
2018-05-07T14:19:37.181Z,24.32
2018-05-07T14:20:43.374Z,24.39
2018-05-07T14:21:49.607Z,24.54
2018-05-07T14:22:55.924Z,24.67
2018-05-07T14:24:01.893Z,24.95
2018-05-07T14:25:07.823Z,25.04
2018-05-07T14:26:14.188Z,24.92
2018-05-07T14:27:20.386Z,24.88
2018-05-07T14:28:27.524Z,24.81
2018-05-07T14:29:34.250Z,24.90
2018-05-07T14:30:40.429Z,24.84